Tiempo atmosférico en la estación meteorológica de Garrucha, Puerto, Almería (12 m.)



Fecha
DESCASC
Temp. máxima en grados centígrados (hora)
DESCASC
Temp. mínima en grados centígrados (hora)
DESCASC
Temp. media en grados centígrados
DESCASC
Racha de viento máxima en m/sg (hora)
DESCASC
Velocidad máxima media en intervalos de 10 minutos(hora)
DESCASC
Precipitaciones diarias en mm
DESCASC
Precipitaciones de 00:00 a 06:00 en mm
DESCASC
Precipitaciones de 06:00 a 12:00 en mm
DESCASC
Precipitaciones de 12:00 a 18:00 en mm
DESCASC
Precipitaciones de 18:00 a 24:00 en mm
DESCASC
11-08-2020 29.6 (10:10) 26.2 (02:50) 27.9 11.67 (06:00) 8.89 (13:30) 0.8 0 0 0 0.8
10-08-2020 31.7 (11:50) 23.1 (07:00) 27.4 9.72 (22:50) 6.39 (22:50) 0 0 0 0 0
09-08-2020 30.7 (10:40) 23 (07:10) 26.9 6.11 (04:10) 4.72 (13:00) 0 0 0 0 0
08-08-2020 31.6 (10:50) 22.8 (07:20) 27.2 7.5 (13:30) 6.94 (13:30) 0 0 0 0 0
07-08-2020 30.1 (12:20) 23.3 (00:00) 26.7 5.83 (16:30) 5.28 (16:30) 0 0 0 0 0
06-08-2020 29.4 (13:20) 23.6 (00:00) 26.5 10 (14:50) 8.61 (14:50) 0 0 0 0 0
05-08-2020 28.8 (19:50) 23.6 (00:00) 26.2 7.78 (16:50) 6.11 (13:40) 0 0 0 0 0
04-08-2020 28.9 (11:40) 26.5 (07:00) 27.7 6.94 (18:20) 6.11 (17:50) 0 0 0 0 0
03-08-2020 29 (11:50) 25.6 (08:20) 27.3 6.11 (11:00) 5 (15:50) 0 0 0 0 0
02-08-2020 30.5 (16:00) 24.8 (00:00) 27.6 8.61 (12:30) 6.94 (12:20) 0 0 0 0 0
01-08-2020 28.7 (18:40) 24.5 (00:00) 26.6 11.11 (16:10) 9.17 (16:00) 0 0 0 0 0
31-07-2020 30.7 (10:10) 24.4 (07:40) 27.6 13.06 (17:30) 8.06 (17:10) 0 0 0 0 0
30-07-2020 29.6 (11:50) 25.8 (00:00) 27.7 8.89 (14:00) 7.22 (14:00) 0 0 0 0 0
29-07-2020 30.2 (12:10) 25.2 (00:00) 27.7 7.22 (13:20) 5.83 (14:50) 0 0 0 0 0
28-07-2020 30.2 (19:30) 24.3 (00:00) 27.3 6.94 (13:10) 5.83 (13:10) 0 0 0 0 0
27-07-2020 29.2 (19:40) 24.9 (00:00) 27.1 6.67 (02:30) 5 (02:30) 0 0 0 0 0
26-07-2020 30 (19:10) 23 (00:00) 26.5 5.83 (05:30) 4.44 (08:20) 0 0 0 0 0
25-07-2020 29.3 (10:50) 22.7 (00:00) 26 5.56 (12:30) 4.72 (12:30) 0 0 0 0 0
24-07-2020 28.1 (10:10) 23.3 (00:00) 25.7 9.72 (16:00) 8.61 (16:00) 0 0 0 0 0
23-07-2020 27.4 (21:10) 23.7 (00:00) 25.6 9.72 (16:10) 8.33 (15:30) 0 0 0 0 0
22-07-2020 28.9 (10:30) 24.2 (00:00) 26.6 9.17 (00:30) 6.67 (13:10) 0 0 0 0 0
21-07-2020 28.2 (09:50) 23 (00:00) 25.6 10 (13:20) 8.33 (13:20) 0 0 0 0 0
20-07-2020 28.2 (10:00) 22.3 (00:00) 25.3 5.83 (18:30) 4.72 (18:40) 0 0 0 0 0
19-07-2020 26.2 (10:10) 22.7 (00:00) 24.5 6.67 (15:30) 5.83 (16:30) 0 0 0 0 0
18-07-2020 26.7 (12:40) 22.2 (00:00) 24.5 7.78 (16:10) 6.67 (16:10) 0 0 0 0 0
17-07-2020 28.1 (10:10) 21.8 (00:00) 24.9 6.11 (12:40) 5.28 (17:40) 0 0 0 0 0
16-07-2020 28.1 (10:30) 21.6 (00:00) 24.9 8.89 (15:50) 7.5 (16:00) 0 0 0 0 0
15-07-2020 27.2 (19:40) 22.9 (00:00) 25.1 10.28 (15:00) 9.17 (15:00) 0 0 0 0 0
14-07-2020 28.4 (10:00) 23 (00:00) 25.7 6.39 (11:40) 5.28 (11:40) 0 0 0 0 0

Gráficas

Temp. máximas Temp. mínimas Temp. medias Precipitaciones Rachas de viento máximas Velocidades máximas media en intervalos de 10 minutos

Datos horarios

Fecha y hora oficial Temperatura (ºC) Velocidad del viento (km/h) Dirección del viento Racha (km/h) Dirección de racha Precipitación (mm) Presión (hPa) Tendencia (hPa) Humedad (%)
2020-08-12 23:00:00 -- -- -- -- -- -- -- -- --
2020-08-12 22:00:00 29.1 13 Sur 35 Sudeste 0 -- -- 48
2020-08-12 21:00:00 30.1 19 Sur 45 Sur 0 -- -- 58
2020-08-12 20:00:00 30.4 32 Sur 53 Sur 0 -- -- 58
2020-08-12 19:00:00 28.3 45 Sur 50 Sur 0 -- -- 76
2020-08-12 18:00:00 28.4 40 Sudeste 45 Sudeste 0 -- -- 65
2020-08-12 17:00:00 27 27 Sudeste 37 Sudeste 0 -- -- 86
2020-08-12 16:00:00 26.7 35 Sudeste 39 Sudeste 0 -- -- 89
2020-08-12 15:00:00 26.7 36 Sudeste 40 Sudeste 0 -- -- 90
2020-08-12 14:00:00 27 30 Sudeste 33 Sudeste 0 -- -- 88
2020-08-12 13:00:00 27.8 23 Sudeste 27 Sudeste 0 -- -- 80
2020-08-12 12:00:00 27.7 13 Este 14 Este 0 -- -- 74
2020-08-12 11:00:00 29.5 5 Nordeste 7 Nordeste 0 -- -- 66
2020-08-12 10:00:00 28 3 Sudoeste 10 Sudoeste 0 -- -- 66
2020-08-12 09:00:00 25.5 4 Oeste 13 Noroeste 0 -- -- 72
2020-08-12 08:00:00 26.3 10 Nordeste 18 Nordeste 0 -- -- 76
2020-08-12 07:00:00 24.8 8 Noroeste 12 Noroeste 0 -- -- 79
2020-08-12 06:00:00 25.5 0 Calma 13 Oeste 0 -- -- 96
2020-08-12 05:00:00 25.6 10 Oeste 16 Noroeste 0 -- -- 96
2020-08-12 04:00:00 26.3 8 Oeste 21 Sudeste 0 -- -- 92
2020-08-12 03:00:00 26.8 15 Sudeste 23 Sudeste 0 -- -- 92
2020-08-12 02:00:00 26.6 3 Norte 12 Nordeste 0 -- -- 92
2020-08-12 01:00:00 26.7 9 Sudeste 28 Este 0 -- -- 92
2020-08-12 00:00:00 26.9 23 Sudeste 31 Sudeste 0 -- -- 92
2020-08-11 23:00:00 27.2 9 Sur 23 Este 0 -- -- 91
2020-08-11 22:00:00 27 12 Norte 39 Nordeste 0 -- -- 90
2020-08-11 21:00:00 27.3 32 Nordeste 37 Nordeste 0.8 -- -- 89
2020-08-11 20:00:00 27.9 10 Nordeste 20 Nordeste 0 -- -- 86
2020-08-11 19:00:00 28.1 14 Nordeste 23 Nordeste 0 -- -- 86
2020-08-11 18:00:00 28.2 12 Nordeste 22 Nordeste 0 -- -- 86
2020-08-11 17:00:00 27.9 15 Este 24 Nordeste 0 -- -- 87
2020-08-11 16:00:00 27.8 21 Nordeste 35 Este 0 -- -- 85
2020-08-11 15:00:00 28.3 28 Nordeste 35 Nordeste 0 -- -- 82
2020-08-11 14:00:00 28.8 30 Nordeste 40 Este 0 -- -- 80
2020-08-11 13:00:00 29.1 25 Este 39 Este 0 -- -- 77
2020-08-11 12:00:00 29 23 Nordeste 34 Nordeste 0 -- -- 73
2020-08-11 11:00:00 29 8 Este 21 Nordeste 0 -- -- 73
2020-08-11 10:00:00 29.2 9 Nordeste 17 Nordeste 0 -- -- 63
2020-08-11 09:00:00 28 4 Oeste 11 Oeste 0 -- -- 60
2020-08-11 08:00:00 26.3 8 Noroeste 14 Norte 0 -- -- 63
2020-08-11 07:00:00 27.9 10 Norte 39 Nordeste 0 -- -- 55
2020-08-11 06:00:00 28.5 25 Nordeste 42 Nordeste 0 -- -- 67
2020-08-11 05:00:00 27.6 11 Norte 27 Norte 0 -- -- 66
2020-08-11 04:00:00 26.9 5 Noroeste 21 Oeste 0 -- -- 68
2020-08-11 03:00:00 26.4 15 Noroeste 17 Noroeste 0 -- -- 72
2020-08-11 02:00:00 27.7 0 Calma 15 Sudeste 0 -- -- 77
2020-08-11 01:00:00 28.3 8 Sudeste 17 Sudeste 0 -- -- 73
2020-08-11 00:00:00 28.6 12 Sudeste 24 Sur 0 -- -- 70
2020-08-10 23:00:00 28 17 Sur 35 Sudoeste 0 -- -- 65
2020-08-10 22:00:00 27.9 6 Este 22 Nordeste 0 -- -- 82
2020-08-10 21:00:00 28.3 9 Este 14 Este 0 -- -- 80
2020-08-10 20:00:00 28.4 7 Este 11 Este 0 -- -- 76
2020-08-10 19:00:00 28.5 8 Este 14 Sudeste 0 -- -- 78
2020-08-10 18:00:00 28.8 8 Sudeste 19 Este 0 -- -- 79
2020-08-10 17:00:00 29.1 16 Este 20 Este 0 -- -- 77
2020-08-10 16:00:00 28.9 12 Este 20 Este 0 -- -- 74
2020-08-10 15:00:00 28.9 16 Este 19 Este 0 -- -- 73
2020-08-10 14:00:00 29.2 12 Sudeste 17 Este 0 -- -- 69
2020-08-10 13:00:00 29.2 15 Este 19 Este 0 -- -- 64
2020-08-10 12:00:00 31.4 8 Este 12 Este 0 -- -- 57
2020-08-10 11:00:00 30.4 6 Noroeste 16 Oeste 0 -- -- 40
2020-08-10 10:00:00 28.3 12 Noroeste 21 Oeste 0 -- -- 39
2020-08-10 09:00:00 25 17 Noroeste 21 Noroeste 0 -- -- 49
2020-08-10 08:00:00 24 14 Noroeste 21 Oeste 0 -- -- 51
2020-08-10 07:00:00 23.1 15 Noroeste 21 Oeste 0 -- -- 57
2020-08-10 06:00:00 23.7 12 Noroeste 21 Oeste 0 -- -- 55
2020-08-10 05:00:00 24.8 15 Noroeste 22 Oeste 0 -- -- 60
2020-08-10 04:00:00 24.6 10 Noroeste 21 Noroeste 0 -- -- 63
2020-08-10 03:00:00 24.6 14 Oeste 19 Oeste 0 -- -- 61
2020-08-10 02:00:00 24.8 14 Oeste 17 Oeste 0 -- -- 71
2020-08-10 01:00:00 24.9 10 Noroeste 13 Noroeste 0 -- -- 79
2020-08-10 00:00:00 26.1 3 Noroeste 10 Oeste 0 -- -- 83
2020-08-09 23:00:00 27.1 4 Norte 8 Norte 0 -- -- 86
2020-08-09 22:00:00 27.3 5 Norte 11 Nordeste 0 -- -- 86
2020-08-09 21:00:00 28.2 3 Nordeste 10 Nordeste 0 -- -- 81
2020-08-09 20:00:00 29.9 4 Nordeste 10 Nordeste 0 -- -- 77
2020-08-09 19:00:00 29.1 5 Este 9 Este 0 -- -- 78
2020-08-09 18:00:00 28.5 6 Este 11 Este 0 -- -- 76
2020-08-09 17:00:00 29 10 Este 18 Sudeste 0 -- -- 79
2020-08-09 16:00:00 28.8 16 Sudeste 19 Este 0 -- -- 78
2020-08-09 15:00:00 28.6 15 Este 18 Este 0 -- -- 76
2020-08-09 14:00:00 28.9 14 Este 19 Este 0 -- -- 73
2020-08-09 13:00:00 28.5 17 Este 19 Este 0 -- -- 72
2020-08-09 12:00:00 28.8 13 Este 15 Este 0 -- -- 69
2020-08-09 11:00:00 29.6 13 Este 14 Nordeste 0 -- -- 71
2020-08-09 10:00:00 29.4 6 Noroeste 14 Noroeste 0 -- -- 43
2020-08-09 09:00:00 25.6 8 Noroeste 19 Oeste 0 -- -- 51
2020-08-09 08:00:00 24.2 14 Oeste 18 Noroeste 0 -- -- 51
2020-08-09 07:00:00 23.3 11 Noroeste 19 Oeste 0 -- -- 59
2020-08-09 06:00:00 24.5 14 Noroeste 19 Oeste 0 -- -- 59
2020-08-09 05:00:00 25 14 Noroeste 22 Oeste 0 -- -- 64
2020-08-09 04:00:00 25.4 16 Oeste 21 Oeste 0 -- -- 53
2020-08-09 03:00:00 24.6 10 Oeste 17 Oeste 0 -- -- 70
2020-08-09 02:00:00 25.7 10 Oeste 13 Oeste 0 -- -- 80
2020-08-09 01:00:00 26.7 8 Norte 14 Nordeste 0 -- -- 81
2020-08-09 00:00:00 26.6 5 Norte 8 Norte 0 -- -- 81
2020-08-08 23:00:00 26.2 3 Noroeste 7 Oeste 0 -- -- 82
2020-08-08 22:00:00 26.8 4 Norte 8 Nordeste 0 -- -- 84
2020-08-08 21:00:00 27.3 3 Norte 9 Nordeste 0 -- -- 81
2020-08-08 20:00:00 28.4 6 Nordeste 10 Nordeste 0 -- -- 78
2020-08-08 19:00:00 27.8 3 Nordeste 12 Este 0 -- -- 80
2020-08-08 18:00:00 27.7 9 Este 19 Este 0 -- -- 78
2020-08-08 17:00:00 27.9 16 Este 19 Este 0 -- -- 81
2020-08-08 16:00:00 28.2 16 Este 18 Este 0 -- -- 79
2020-08-08 15:00:00 28.1 16 Este 21 Este 0 -- -- 79
2020-08-08 14:00:00 28 17 Este 27 Este 0 -- -- 77
2020-08-08 13:00:00 27.8 21 Este 22 Este 0 -- -- 75
2020-08-08 12:00:00 29.7 4 Este 15 Nordeste 0 -- -- 58
2020-08-08 11:00:00 30.6 9 Nordeste 12 Oeste 0 -- -- 48
2020-08-08 10:00:00 27.6 12 Oeste 18 Oeste 0 -- -- 45
2020-08-08 09:00:00 25.1 9 Oeste 19 Noroeste 0 -- -- 53
2020-08-08 08:00:00 23.1 11 Noroeste 17 Oeste 0 -- -- 60
2020-08-08 07:00:00 23 15 Oeste 20 Noroeste 0 -- -- 58
2020-08-08 06:00:00 23.6 14 Oeste 19 Noroeste 0 -- -- 58
2020-08-08 05:00:00 23.8 9 Oeste 17 Oeste 0 -- -- 57
2020-08-08 04:00:00 24.2 13 Oeste 17 Oeste 0 -- -- 58
2020-08-08 03:00:00 24.8 11 Oeste 17 Noroeste 0 -- -- 58
2020-08-08 02:00:00 25.2 12 Oeste 16 Oeste 0 -- -- 71
2020-08-08 01:00:00 24.7 10 Oeste 15 Oeste 0 -- -- 74
2020-08-08 00:00:00 26.4 4 Noroeste 8 Nordeste 0 -- -- 77
2020-08-07 23:00:00 27.1 6 Nordeste 10 Nordeste 0 -- -- 82
2020-08-07 22:00:00 27.2 4 Norte 10 Norte 0 -- -- 79
2020-08-07 21:00:00 27.7 8 Nordeste 14 Nordeste 0 -- -- 77
2020-08-07 20:00:00 28.7 11 Nordeste 15 Nordeste 0 -- -- 74
2020-08-07 19:00:00 29 12 Nordeste 16 Nordeste 0 -- -- 74
2020-08-07 18:00:00 29 14 Este 18 Este 0 -- -- 74
2020-08-07 17:00:00 28.4 17 Este 21 Este 0 -- -- 74
2020-08-07 16:00:00 27.8 15 Este 20 Este 0 -- -- 73
2020-08-07 15:00:00 29.1 17 Este 20 Este 0 -- -- 67
2020-08-07 14:00:00 30 14 Nordeste 19 Este 0 -- -- 63
2020-08-07 13:00:00 30 14 Nordeste 17 Nordeste 0 -- -- 62
2020-08-07 12:00:00 29.7 12 Nordeste 15 Nordeste 0 -- -- 57
2020-08-07 11:00:00 29 4 Norte 13 Norte 0 -- -- 55
2020-08-07 10:00:00 26.9 11 Noroeste 16 Norte 0 -- -- 61
2020-08-07 09:00:00 24.4 9 Noroeste 17 Oeste 0 -- -- 72
2020-08-07 08:00:00 23.6 12 Noroeste 17 Oeste 0 -- -- 74
2020-08-07 07:00:00 23.6 11 Noroeste 14 Noroeste 0 -- -- 74
2020-08-07 06:00:00 24.5 8 Noroeste 14 Noroeste 0 -- -- 71
2020-08-07 05:00:00 24.2 9 Noroeste 13 Noroeste 0 -- -- 74
2020-08-07 04:00:00 24.5 9 Noroeste 13 Noroeste 0 -- -- 76
2020-08-07 03:00:00 24.4 9 Noroeste 14 Oeste 0 -- -- 82
2020-08-07 02:00:00 25 10 Oeste 15 Oeste 0 -- -- 82
2020-08-07 01:00:00 25.8 9 Noroeste 13 Noroeste 0 -- -- 81
2020-08-07 00:00:00 26.7 13 Norte 22 Nordeste 0 -- -- 82
2020-08-06 23:00:00 26.8 17 Nordeste 24 Nordeste 0 -- -- 82
2020-08-06 22:00:00 26.8 17 Nordeste 23 Nordeste 0 -- -- 82
2020-08-06 21:00:00 27.5 13 Nordeste 22 Nordeste 0 -- -- 79
2020-08-06 20:00:00 27.9 18 Nordeste 27 Nordeste 0 -- -- 78
2020-08-06 19:00:00 28.4 20 Nordeste 28 Este 0 -- -- 77
2020-08-06 18:00:00 28.2 24 Este 32 Este 0 -- -- 77
2020-08-06 17:00:00 28.3 27 Este 33 Este 0 -- -- 77
2020-08-06 16:00:00 28.7 27 Este 34 Nordeste 0 -- -- 77
2020-08-06 15:00:00 28.5 30 Este 36 Este 0 -- -- 75
2020-08-06 14:00:00 29.2 22 Nordeste 29 Este 0 -- -- 70
2020-08-06 13:00:00 29 18 Nordeste 29 Nordeste 0 -- -- 68
2020-08-06 12:00:00 28.5 18 Nordeste 27 Norte 0 -- -- 69
2020-08-06 11:00:00 28.5 16 Nordeste 25 Nordeste 0 -- -- 68
2020-08-06 10:00:00 27.5 15 Norte 23 Norte 0 -- -- 68
2020-08-06 09:00:00 25.7 10 Noroeste 18 Noroeste 0 -- -- 78
2020-08-06 08:00:00 24.1 13 Noroeste 19 Oeste 0 -- -- 83
2020-08-06 07:00:00 24.6 12 Noroeste 23 Norte 0 -- -- 82
2020-08-06 06:00:00 24.7 13 Norte 23 Norte 0 -- -- 81
2020-08-06 05:00:00 25.1 10 Norte 15 Norte 0 -- -- 80
2020-08-06 04:00:00 25.1 5 Noroeste 12 Noroeste 0 -- -- 84
2020-08-06 03:00:00 25.8 5 Noroeste 11 Norte 0 -- -- 83
2020-08-06 02:00:00 26.5 12 Nordeste 21 Nordeste 0 -- -- 84
2020-08-06 01:00:00 26.8 13 Nordeste 19 Nordeste 0 -- -- 84
2020-08-06 00:00:00 26.7 12 Nordeste 18 Nordeste 0 -- -- 83
2020-08-05 23:00:00 26.8 11 Nordeste 18 Nordeste 0 -- -- 83
2020-08-05 22:00:00 27.1 12 Nordeste 19 Nordeste 0 -- -- 82
2020-08-05 21:00:00 27.6 13 Nordeste 20 Nordeste 0 -- -- 79
2020-08-05 20:00:00 28.6 15 Nordeste 22 Este 0 -- -- 75
2020-08-05 19:00:00 28.7 17 Nordeste 22 Nordeste 0 -- -- 76
2020-08-05 18:00:00 27.6 17 Este 24 Este 0 -- -- 79
2020-08-05 17:00:00 27.5 20 Este 28 Este 0 -- -- 78
2020-08-05 16:00:00 27.5 20 Este 24 Este 0 -- -- 78
2020-08-05 15:00:00 27.4 20 Este 24 Este 0 -- -- 78
2020-08-05 14:00:00 28 21 Este 26 Este 0 -- -- 78
2020-08-05 13:00:00 28.7 21 Este 26 Nordeste 0 -- -- 75
2020-08-05 12:00:00 28.1 21 Nordeste 25 Nordeste 0 -- -- 76
2020-08-05 11:00:00 28.2 15 Nordeste 22 Nordeste 0 -- -- 74
2020-08-05 10:00:00 26.7 11 Norte 15 Norte 0 -- -- 76
2020-08-05 09:00:00 25.2 9 Noroeste 14 Oeste 0 -- -- 83
2020-08-05 08:00:00 23.7 9 Noroeste 14 Oeste 0 -- -- 87
2020-08-05 07:00:00 23.9 9 Noroeste 14 Noroeste 0 -- -- 88
2020-08-05 06:00:00 24 8 Noroeste 13 Oeste 0 -- -- 88
2020-08-05 05:00:00 24.9 8 Noroeste 12 Noroeste 0 -- -- 87
2020-08-05 04:00:00 25 8 Noroeste 11 Noroeste 0 -- -- 86
2020-08-05 03:00:00 25.1 9 Noroeste 12 Noroeste 0 -- -- 86
2020-08-05 02:00:00 25.9 4 Norte 11 Noroeste 0 -- -- 84
2020-08-05 01:00:00 26.2 7 Noroeste 11 Norte 0 -- -- 84
2020-08-05 00:00:00 26.5 6 Nordeste 13 Nordeste 0 -- -- 84
2020-08-04 23:00:00 26.7 8 Nordeste 14 Nordeste 0 -- -- 84
2020-08-04 22:00:00 26.8 11 Nordeste 21 Este 0 -- -- 85
2020-08-04 21:00:00 26.8 17 Este 21 Este 0 -- -- 85
2020-08-04 20:00:00 27.4 17 Este 22 Este 0 -- -- 84
2020-08-04 19:00:00 27.4 21 Este 25 Este 0 -- -- 83
2020-08-04 18:00:00 27.7 20 Sudeste 25 Sudeste 0 -- -- 82
2020-08-04 17:00:00 27.9 20 Este 25 Este 0 -- -- 83
2020-08-04 16:00:00 27.8 21 Sudeste 25 Este 0 -- -- 82
2020-08-04 15:00:00 27.6 21 Este 24 Este 0 -- -- 81
2020-08-04 14:00:00 28.1 17 Este 21 Este 0 -- -- 82
2020-08-04 13:00:00 27.9 15 Este 23 Este 0 -- -- 82
2020-08-04 12:00:00 28.7 17 Este 20 Nordeste 0 -- -- 79
2020-08-04 11:00:00 28.2 13 Nordeste 19 Nordeste 0 -- -- 83
2020-08-04 10:00:00 28.3 14 Nordeste 21 Nordeste 0 -- -- 81
2020-08-04 09:00:00 27.2 17 Nordeste 21 Nordeste 0 -- -- 86
2020-08-04 08:00:00 26.7 13 Nordeste 22 Nordeste 0 -- -- 88
2020-08-04 07:00:00 26.5 18 Nordeste 23 Nordeste 0 -- -- 89
2020-08-04 06:00:00 26.7 17 Nordeste 22 Nordeste 0 -- -- 88
2020-08-04 05:00:00 26.8 14 Nordeste 19 Nordeste 0 -- -- 89
2020-08-04 04:00:00 26.9 12 Nordeste 16 Nordeste 0 -- -- 88
2020-08-04 03:00:00 26.8 9 Nordeste 13 Nordeste 0 -- -- 89
2020-08-04 02:00:00 26.9 7 Nordeste 10 Nordeste 0 -- -- 88
2020-08-04 01:00:00 27.1 0 Calma 6 Nordeste 0 -- -- 88
2020-08-04 00:00:00 27.1 2 Nordeste 8 Este 0 -- -- 87
2020-08-03 23:00:00 27.2 5 Este 11 Este 0 -- -- 87
2020-08-03 22:00:00 27.3 7 Este 15 Este 0 -- -- 87
2020-08-03 21:00:00 27.7 12 Este 20 Este 0 -- -- 86
2020-08-03 20:00:00 27.8 15 Este 19 Sudeste 0 -- -- 85
2020-08-03 19:00:00 27.9 15 Sudeste 21 Sudeste 0 -- -- 85
2020-08-03 18:00:00 28 18 Sudeste 22 Sudeste 0 -- -- 83
2020-08-03 17:00:00 27.9 18 Sudeste 21 Sudeste 0 -- -- 83
2020-08-03 16:00:00 27.8 18 Sudeste 21 Sudeste 0 -- -- 83
2020-08-03 15:00:00 27.7 16 Sudeste 20 Sur 0 -- -- 83
2020-08-03 14:00:00 27.8 13 Sudeste 16 Sudeste 0 -- -- 83
2020-08-03 13:00:00 28.5 9 Este 11 Este 0 -- -- 79
2020-08-03 12:00:00 29 12 Nordeste 20 Nordeste 0 -- -- 77
2020-08-03 11:00:00 28 17 Nordeste 22 Nordeste 0 -- -- 80
2020-08-03 10:00:00 28.1 4 Nordeste 11 Noroeste 0 -- -- 81
2020-08-03 09:00:00 25.8 10 Oeste 15 Noroeste 0 -- -- 88
2020-08-03 08:00:00 25.7 12 Noroeste 15 Noroeste 0 -- -- 92
2020-08-03 07:00:00 26 4 Noroeste 9 Noroeste 0 -- -- 93
2020-08-03 06:00:00 26.1 3 Norte 5 Nordeste 0 -- -- 93
2020-08-03 05:00:00 26 4 Oeste 8 Noroeste 0 -- -- 94
2020-08-03 04:00:00 26.1 4 Sudoeste 6 Oeste 0 -- -- 94
2020-08-03 03:00:00 26.3 5 Noroeste 9 Sudoeste 0 -- -- 93
2020-08-03 02:00:00 26.5 3 Oeste 7 Sur 0 -- -- 93
2020-08-03 01:00:00 26.7 0 Calma 8 Nordeste 0 -- -- 92
2020-08-03 00:00:00 26.9 4 Nordeste 9 Este 0 -- -- 92
2020-08-02 23:00:00 27.1 4 Este 5 Este 0 -- -- 92
2020-08-02 22:00:00 27.1 0 Calma 9 Este 0 -- -- 91
2020-08-02 21:00:00 27.3 8 Este 15 Sudeste 0 -- -- 91
2020-08-02 20:00:00 27.9 12 Sudeste 15 Este 0 -- -- 89
2020-08-02 19:00:00 28.1 14 Este 15 Este 0 -- -- 88
2020-08-02 18:00:00 30 13 Nordeste 18 Nordeste 0 -- -- 80
2020-08-02 17:00:00 30.4 12 Nordeste 17 Nordeste 0 -- -- 79
2020-08-02 16:00:00 30.5 9 Nordeste 17 Nordeste 0 -- -- 78
2020-08-02 15:00:00 29.8 12 Nordeste 21 Nordeste 0 -- -- 81
2020-08-02 14:00:00 29.6 12 Nordeste 21 Este 0 -- -- 84
2020-08-02 13:00:00 28.3 19 Este 31 Este 0 -- -- 88
2020-08-02 12:00:00 28.7 16 Este 20 Sudeste 0 -- -- 86
2020-08-02 11:00:00 29.7 8 Nordeste 17 Nordeste 0 -- -- 83
2020-08-02 10:00:00 29.9 3 Nordeste 9 Nordeste 0 -- -- 76
2020-08-02 09:00:00 28.4 6 Norte 14 Noroeste 0 -- -- 65
2020-08-02 08:00:00 27.2 10 Noroeste 17 Oeste 0 -- -- 47
2020-08-02 07:00:00 27.6 15 Oeste 22 Oeste 0 -- -- 46
2020-08-02 06:00:00 27 17 Oeste 22 Oeste 0 -- -- 63
2020-08-02 05:00:00 25.1 18 Oeste 21 Oeste 0 -- -- 77
2020-08-02 04:00:00 25.9 4 Oeste 12 Oeste 0 -- -- 95
2020-08-02 03:00:00 26.3 0 Calma 20 Sur 0 -- -- 96
2020-08-02 02:00:00 26.2 5 Noroeste 7 Oeste 0 -- -- 95
2020-08-02 01:00:00 26.3 0 Calma 10 Sur 0 -- -- 96
2020-08-02 00:00:00 26.6 10 Sur 18 Sur 0 -- -- 97
2020-08-01 23:00:00 26.7 17 Sur 21 Sudeste 0 -- -- 97
2020-08-01 22:00:00 27.2 9 Sudeste 13 Sur 0 -- -- 95
2020-08-01 21:00:00 27.8 4 Sur 8 Sur 0 -- -- 92
2020-08-01 20:00:00 28.3 7 Este 22 Nordeste 0 -- -- 91
2020-08-01 19:00:00 28.3 23 Nordeste 31 Nordeste 0 -- -- 90
2020-08-01 18:00:00 27.7 16 Sudeste 30 Sudeste 0 -- -- 94
2020-08-01 17:00:00 27.4 21 Sudeste 40 Sudeste 0 -- -- 93
2020-08-01 16:00:00 27.3 33 Sudeste 40 Sudeste 0 -- -- 93
2020-08-01 15:00:00 27.2 22 Sudeste 25 Sudeste 0 -- -- 92
2020-08-01 14:00:00 27.5 17 Sudeste 21 Sudeste 0 -- -- 92
2020-08-01 13:00:00 27.8 15 Este 18 Este 0 -- -- 90
2020-08-01 12:00:00 27.1 15 Este 18 Este 0 -- -- 92
2020-08-01 11:00:00 27.1 14 Sudeste 18 Sudeste 0 -- -- 91
2020-08-01 10:00:00 27 12 Este 25 Oeste 0 -- -- 82
2020-08-01 09:00:00 26.5 5 Noroeste 18 Oeste 0 -- -- 78
2020-08-01 08:00:00 25.2 7 Noroeste 12 Oeste 0 -- -- 83
2020-08-01 07:00:00 24.7 5 Noroeste 15 Oeste 0 -- -- 85
2020-08-01 06:00:00 24.9 8 Noroeste 14 Oeste 0 -- -- 88
2020-08-01 05:00:00 25.1 3 Noroeste 10 Oeste 0 -- -- 91
2020-08-01 04:00:00 26.1 8 Sudoeste 11 Sudoeste 0 -- -- 90
2020-08-01 03:00:00 26.6 6 Noroeste 8 Noroeste 0 -- -- 86
2020-08-01 02:00:00 26.7 3 Sudoeste 10 Sudoeste 0 -- -- 82
2020-08-01 01:00:00 26.5 8 Sur 22 Sur 0 -- -- 83
2020-08-01 00:00:00 27.3 17 Sudeste 25 Sudeste 0 -- -- 88
2020-07-31 23:00:00 27.3 13 Sudeste 15 Sudeste 0 -- -- 89
2020-07-31 22:00:00 27.3 4 Sudeste 9 Sur 0 -- -- 89
2020-07-31 21:00:00 27.4 3 Nordeste 10 Este 0 -- -- 89
2020-07-31 20:00:00 27.7 7 Sudeste 17 Este 0 -- -- 89
2020-07-31 19:00:00 28.2 15 Este 29 Sudeste 0 -- -- 88
2020-07-31 18:00:00 27.6 24 Este 47 Sudeste 0 -- -- 90
2020-07-31 17:00:00 27.3 25 Sudeste 30 Sudeste 0 -- -- 89
2020-07-31 16:00:00 27.4 22 Sudeste 26 Sudeste 0 -- -- 87
2020-07-31 15:00:00 27.4 19 Sudeste 22 Sudeste 0 -- -- 85
2020-07-31 14:00:00 27.4 18 Sudeste 21 Sudeste 0 -- -- 84
2020-07-31 13:00:00 27.7 18 Sudeste 21 Sudeste 0 -- -- 81
2020-07-31 12:00:00 28.1 14 Sudeste 17 Sudeste 0 -- -- 71
2020-07-31 11:00:00 28.8 8 Este 10 Este 0 -- -- 74
2020-07-31 10:00:00 29.2 4 Noroeste 7 Noroeste 0 -- -- 61
2020-07-31 09:00:00 27.1 5 Noroeste 13 Oeste 0 -- -- 67
2020-07-31 08:00:00 24.9 8 Oeste 15 Oeste 0 -- -- 76
2020-07-31 07:00:00 24.7 10 Noroeste 14 Noroeste 0 -- -- 74
2020-07-31 06:00:00 25.3 13 Noroeste 18 Oeste 0 -- -- 77
2020-07-31 05:00:00 24.5 12 Noroeste 17 Noroeste 0 -- -- 77
2020-07-31 04:00:00 25.6 10 Oeste 14 Oeste 0 -- -- 78
2020-07-31 03:00:00 26.1 7 Noroeste 9 Oeste 0 -- -- 79
2020-07-31 02:00:00 27.7 3 Sur 10 Sudoeste 0 -- -- 79
2020-07-31 01:00:00 27.4 10 Sudoeste 15 Sudoeste 0 -- -- 76
2020-07-31 00:00:00 27.6 6 Sudoeste 12 Sudoeste 0 -- -- 76
2020-07-30 23:00:00 27.8 5 Sudoeste 8 Noroeste 0 -- -- 79
2020-07-30 22:00:00 27.8 5 Noroeste 9 Noroeste 0 -- -- 81
2020-07-30 21:00:00 27.9 3 Norte 10 Nordeste 0 -- -- 82
2020-07-30 20:00:00 29.3 2 Nordeste 7 Nordeste 0 -- -- 78
2020-07-30 19:00:00 28.8 4 Nordeste 10 Este 0 -- -- 80
2020-07-30 18:00:00 28.2 10 Este 19 Este 0 -- -- 83
2020-07-30 17:00:00 28.7 14 Este 18 Este 0 -- -- 78
2020-07-30 16:00:00 28.9 9 Nordeste 18 Este 0 -- -- 79
2020-07-30 15:00:00 27.9 17 Este 28 Este 0 -- -- 83
2020-07-30 14:00:00 28.1 26 Este 32 Este 0 -- -- 83
2020-07-30 13:00:00 29 24 Nordeste 30 Nordeste 0 -- -- 79
2020-07-30 12:00:00 29.5 10 Nordeste 16 Nordeste 0 -- -- 76
2020-07-30 11:00:00 28.8 13 Nordeste 19 Nordeste 0 -- -- 78
2020-07-30 10:00:00 28 8 Norte 26 Nordeste 0 -- -- 76
2020-07-30 09:00:00 27.2 17 Nordeste 24 Nordeste 0 -- -- 87
2020-07-30 08:00:00 26.6 17 Nordeste 26 Nordeste 0 -- -- 89
2020-07-30 07:00:00 26.5 18 Nordeste 30 Nordeste 0 -- -- 87
2020-07-30 06:00:00 27 18 Este 24 Este 0 -- -- 83
2020-07-30 05:00:00 27.4 9 Este 19 Nordeste 0 -- -- 78
2020-07-30 04:00:00 26.1 14 Noroeste 26 Noroeste 0 -- -- 76
2020-07-30 03:00:00 26.1 17 Oeste 24 Oeste 0 -- -- 82
2020-07-30 02:00:00 26.5 11 Noroeste 17 Noroeste 0 -- -- 87
2020-07-30 01:00:00 26.5 4 Sudoeste 14 Sur 0 -- -- 90
2020-07-30 00:00:00 27 4 Sudeste 15 Sudoeste 0 -- -- 89
2020-07-29 23:00:00 26.9 3 Noroeste 16 Nordeste 0 -- -- 89
2020-07-29 22:00:00 27.3 11 Nordeste 16 Nordeste 0 -- -- 86
2020-07-29 21:00:00 27.6 6 Nordeste 12 Nordeste 0 -- -- 83
2020-07-29 20:00:00 28.6 6 Nordeste 12 Nordeste 0 -- -- 79
2020-07-29 19:00:00 29.6 7 Nordeste 17 Este 0 -- -- 77
2020-07-29 18:00:00 27.8 14 Este 18 Este 0 -- -- 82
2020-07-29 17:00:00 28.1 12 Sudeste 16 Sudeste 0 -- -- 82
2020-07-29 16:00:00 28 13 Sudeste 22 Este 0 -- -- 82
2020-07-29 15:00:00 27.6 18 Este 24 Este 0 -- -- 83
2020-07-29 14:00:00 29 17 Este 26 Nordeste 0 -- -- 78
2020-07-29 13:00:00 29.8 12 Nordeste 17 Nordeste 0 -- -- 76
2020-07-29 12:00:00 29.9 9 Nordeste 18 Nordeste 0 -- -- 74
2020-07-29 11:00:00 29 9 Nordeste 13 Nordeste 0 -- -- 76
2020-07-29 10:00:00 27.9 7 Norte 10 Norte 0 -- -- 81
2020-07-29 09:00:00 27.2 4 Nordeste 11 Nordeste 0 -- -- 83
2020-07-29 08:00:00 26.5 0 Calma 9 Sudoeste 0 -- -- 85
2020-07-29 07:00:00 25.6 8 Sudoeste 12 Sudoeste 0 -- -- 84
2020-07-29 06:00:00 25.7 6 Noroeste 11 Norte 0 -- -- 83
2020-07-29 05:00:00 25.4 4 Noroeste 20 Oeste 0 -- -- 87
2020-07-29 04:00:00 25.9 14 Oeste 22 Oeste 0 -- -- 87
2020-07-29 03:00:00 25.6 14 Oeste 19 Oeste 0 -- -- 90
2020-07-29 02:00:00 26.4 6 Norte 10 Nordeste 0 -- -- 90
2020-07-29 01:00:00 26.9 6 Nordeste 14 Nordeste 0 -- -- 87
2020-07-29 00:00:00 27.5 5 Nordeste 8 Nordeste 0 -- -- 83
2020-07-28 23:00:00 27.4 4 Nordeste 7 Nordeste 0 -- -- 80
2020-07-28 22:00:00 27.5 4 Nordeste 15 Este 0 -- -- 78
2020-07-28 21:00:00 28 14 Este 16 Nordeste 0 -- -- 77
2020-07-28 20:00:00 29.4 13 Este 15 Nordeste 0 -- -- 72
2020-07-28 19:00:00 30 10 Nordeste 15 Este 0 -- -- 72
2020-07-28 18:00:00 29.5 15 Sudeste 19 Este 0 -- -- 64
2020-07-28 17:00:00 28.1 18 Sur 20 Sur 0 -- -- 77
2020-07-28 16:00:00 28 15 Sudeste 18 Sudeste 0 -- -- 75
2020-07-28 15:00:00 27.9 16 Sudeste 21 Sudeste 0 -- -- 72
2020-07-28 14:00:00 27.6 19 Sudeste 25 Sudeste 0 -- -- 71
2020-07-28 13:00:00 27.8 18 Sudeste 21 Sudeste 0 -- -- 75
2020-07-28 12:00:00 28 12 Sudeste 14 Sudeste 0 -- -- 73
2020-07-28 11:00:00 28.2 6 Sudeste 9 Sudeste 0 -- -- 64
2020-07-28 10:00:00 29.2 0 Calma 8 Noroeste 0 -- -- 53
2020-07-28 09:00:00 27.6 4 Oeste 8 Sudoeste 0 -- -- 52
2020-07-28 08:00:00 24.5 7 Oeste 12 Sudoeste 0 -- -- 62
2020-07-28 07:00:00 25.8 4 Sudoeste 12 Sudoeste 0 -- -- 57
2020-07-28 06:00:00 25 5 Sur 10 Sudoeste 0 -- -- 62
2020-07-28 05:00:00 26 4 Oeste 14 Oeste 0 -- -- 63
2020-07-28 04:00:00 26.6 12 Oeste 20 Oeste 0 -- -- 60
2020-07-28 03:00:00 25 15 Oeste 20 Oeste 0 -- -- 71
2020-07-28 02:00:00 25.8 14 Noroeste 18 Oeste 0 -- -- 79
2020-07-28 01:00:00 25.9 6 Noroeste 13 Oeste 0 -- -- 76
2020-07-28 00:00:00 27 5 Oeste 8 Oeste 0 -- -- 75
2020-07-27 23:00:00 27 3 Norte 5 Nordeste 0 -- -- 77
2020-07-27 22:00:00 27.4 0 Calma 3 Oeste 0 -- -- 78
2020-07-27 21:00:00 27.8 3 Nordeste 14 Este 0 -- -- 77
2020-07-27 20:00:00 29 2 Oeste 8 Sudoeste 0 -- -- 73
2020-07-27 19:00:00 28.4 5 Sudoeste 13 Nordeste 0 -- -- 76
2020-07-27 18:00:00 28.3 5 Este 17 Este 0 -- -- 79
2020-07-27 17:00:00 28 8 Este 14 Este 0 -- -- 77
2020-07-27 16:00:00 28.4 9 Sudeste 14 Este 0 -- -- 76
2020-07-27 15:00:00 28.5 10 Este 13 Este 0 -- -- 78
2020-07-27 14:00:00 28.4 9 Este 19 Este 0 -- -- 78
2020-07-27 13:00:00 27.8 14 Este 21 Sudeste 0 -- -- 78
2020-07-27 12:00:00 28 15 Este 22 Este 0 -- -- 77
2020-07-27 09:00:00 -- -- -- -- -- -- -- -- --
2020-07-27 08:00:00 -- -- -- -- -- -- -- -- --
2020-07-27 07:00:00 -- -- -- -- -- -- -- -- --
2020-07-27 06:00:00 25.1 14 Noroeste 21 Noroeste 0 -- -- 68
2020-07-27 05:00:00 25.4 16 Noroeste 19 Noroeste 0 -- -- 66
2020-07-27 04:00:00 25.9 17 Noroeste 22 Oeste 0 -- -- 69
2020-07-27 03:00:00 25.5 14 Noroeste 24 Oeste 0 -- -- 73
2020-07-27 02:00:00 25.3 14 Noroeste 17 Noroeste 0 -- -- 76
2020-07-27 01:00:00 25.8 12 Noroeste 13 Oeste 0 -- -- 78
2020-07-27 00:00:00 26.9 3 Sudoeste 5 Sudeste 0 -- -- 82
2020-07-26 23:00:00 27.5 5 Sudeste 8 Este 0 -- -- 82
2020-07-26 22:00:00 27.8 3 Nordeste 7 Nordeste 0 -- -- 78
2020-07-26 21:00:00 28.3 3 Norte 8 Norte 0 -- -- 75
2020-07-26 20:00:00 29.2 3 Noroeste 8 Nordeste 0 -- -- 75
2020-07-26 19:00:00 29.7 2 Este 13 Este 0 -- -- 76
2020-07-26 18:00:00 27.9 9 Este 13 Este 0 -- -- 80
2020-07-26 17:00:00 28.2 10 Sudeste 15 Este 0 -- -- 80
2020-07-26 16:00:00 28 12 Este 16 Este 0 -- -- 81
2020-07-26 15:00:00 27.6 11 Este 20 Este 0 -- -- 85
2020-07-26 14:00:00 27.7 16 Este 20 Sudeste 0 -- -- 82
2020-07-26 13:00:00 27.6 12 Sudeste 14 Sudeste 0 -- -- 78
2020-07-26 12:00:00 27.6 13 Este 18 Este 0 -- -- 76
2020-07-26 11:00:00 27.9 16 Este 18 Este 0 -- -- 70
2020-07-26 10:00:00 29 8 Noroeste 19 Noroeste 0 -- -- 61
2020-07-26 09:00:00 25.6 13 Noroeste 21 Noroeste 0 -- -- 74
2020-07-26 08:00:00 23.6 15 Noroeste 20 Noroeste 0 -- -- 82
2020-07-26 07:00:00 23.4 13 Noroeste 18 Oeste 0 -- -- 86
2020-07-26 06:00:00 23.1 13 Noroeste 21 Oeste 0 -- -- 86
2020-07-26 05:00:00 23.1 14 Oeste 18 Oeste 0 -- -- 89
2020-07-26 04:00:00 23.8 10 Oeste 14 Oeste 0 -- -- 89
2020-07-26 03:00:00 25.9 12 Este 14 Este 0 -- -- 90
2020-07-26 02:00:00 25.9 5 Este 9 Este 0 -- -- 88
2020-07-26 01:00:00 25.8 4 Nordeste 13 Nordeste 0 -- -- 87
2020-07-26 00:00:00 25.7 7 Norte 13 Norte 0 -- -- 87
2020-07-25 23:00:00 26 8 Nordeste 11 Norte 0 -- -- 88
2020-07-25 22:00:00 26.3 6 Nordeste 11 Nordeste 0 -- -- 87
2020-07-25 21:00:00 27.4 8 Nordeste 12 Nordeste 0 -- -- 83
2020-07-25 20:00:00 28.4 9 Nordeste 14 Nordeste 0 -- -- 80
2020-07-25 19:00:00 28 10 Este 16 Nordeste 0 -- -- 81
2020-07-25 18:00:00 28.1 13 Nordeste 19 Este 0 -- -- 81
2020-07-25 17:00:00 27.3 14 Este 19 Este 0 -- -- 84
2020-07-25 16:00:00 27.2 16 Este 20 Este 0 -- -- 84
2020-07-25 15:00:00 27 16 Este 18 Este 0 -- -- 83
2020-07-25 14:00:00 27.3 15 Este 19 Este 0 -- -- 81
2020-07-25 13:00:00 27.2 14 Este 20 Este 0 -- -- 78
2020-07-25 12:00:00 28.2 13 Este 16 Nordeste 0 -- -- 72
2020-07-25 11:00:00 29.2 7 Nordeste 15 Nordeste 0 -- -- 65
2020-07-25 10:00:00 27.4 6 Norte 17 Noroeste 0 -- -- 63
2020-07-25 09:00:00 25 12 Noroeste 17 Noroeste 0 -- -- 75
2020-07-25 08:00:00 23 13 Noroeste 17 Noroeste 0 -- -- 85
2020-07-25 07:00:00 23 7 Noroeste 14 Oeste 0 -- -- 88
2020-07-25 06:00:00 23.3 9 Oeste 13 Oeste 0 -- -- 89
2020-07-25 05:00:00 23.8 11 Oeste 13 Noroeste 0 -- -- 87
2020-07-25 04:00:00 24.3 7 Noroeste 9 Noroeste 0 -- -- 84
2020-07-25 03:00:00 24.8 4 Noroeste 6 Noroeste 0 -- -- 82
2020-07-25 02:00:00 25 5 Norte 9 Norte 0 -- -- 81
2020-07-25 01:00:00 25.4 5 Nordeste 9 Nordeste 0 -- -- 86
2020-07-25 00:00:00 26 7 Nordeste 14 Nordeste 0 -- -- 86
2020-07-24 23:00:00 25.9 9 Nordeste 12 Nordeste 0 -- -- 86
2020-07-24 22:00:00 25.5 9 Este 14 Este 0 -- -- 87
2020-07-24 21:00:00 25.7 15 Este 21 Este 0 -- -- 90
2020-07-24 20:00:00 25.8 21 Este 24 Este 0 -- -- 90
2020-07-24 19:00:00 26.3 22 Este 28 Este 0 -- -- 90
2020-07-24 18:00:00 26.3 26 Sudeste 32 Sudeste 0 -- -- 90
2020-07-24 17:00:00 26.2 27 Sudeste 33 Sudeste 0 -- -- 90
2020-07-24 16:00:00 26.1 31 Sudeste 35 Sudeste 0 -- -- 91
2020-07-24 15:00:00 26.2 27 Sudeste 32 Sudeste 0 -- -- 90
2020-07-24 14:00:00 26.8 22 Sudeste 26 Este 0 -- -- 87
2020-07-24 13:00:00 27 16 Sudeste 18 Sudeste 0 -- -- 85
2020-07-24 12:00:00 26.8 11 Sudeste 13 Este 0 -- -- 83
2020-07-24 11:00:00 27.5 9 Nordeste 13 Nordeste 0 -- -- 79
2020-07-24 10:00:00 27.6 4 Nordeste 7 Norte 0 -- -- 77
2020-07-24 09:00:00 25.1 4 Noroeste 8 Noroeste 0 -- -- 78
2020-07-24 08:00:00 23.6 6 Noroeste 8 Oeste 0 -- -- 81
2020-07-24 07:00:00 23.4 5 Oeste 10 Oeste 0 -- -- 84
2020-07-24 06:00:00 23.8 5 Oeste 9 Oeste 0 -- -- 84
2020-07-24 05:00:00 24.2 6 Oeste 8 Oeste 0 -- -- 85
2020-07-24 04:00:00 24.4 4 Noroeste 6 Oeste 0 -- -- 86
2020-07-24 03:00:00 24.7 3 Noroeste 6 Noroeste 0 -- -- 85
2020-07-24 02:00:00 25.3 3 Noroeste 8 Noroeste 0 -- -- 86
2020-07-24 01:00:00 25.3 7 Noroeste 15 Norte 0 -- -- 87
2020-07-24 00:00:00 25.6 11 Norte 20 Norte 0 -- -- 88
2020-07-23 23:00:00 26.4 14 Norte 22 Nordeste 0 -- -- 86
2020-07-23 22:00:00 27.3 3 Oeste 19 Sur 0 -- -- 79
2020-07-23 21:00:00 27.1 19 Sur 35 Sur 0 -- -- 79
2020-07-23 20:00:00 26.6 24 Sudeste 32 Sur 0 -- -- 82
2020-07-23 19:00:00 26.3 25 Sudeste 30 Sudeste 0 -- -- 88
2020-07-23 18:00:00 26.1 26 Sudeste 34 Sudeste 0 -- -- 88
2020-07-23 17:00:00 26.2 30 Sudeste 35 Sudeste 0 -- -- 86
2020-07-23 16:00:00 25.9 29 Sudeste 34 Sudeste 0 -- -- 86
2020-07-23 15:00:00 26.3 28 Sudeste 31 Sudeste 0 -- -- 86
2020-07-23 14:00:00 26.4 26 Sudeste 29 Sudeste 0 -- -- 77
2020-07-23 13:00:00 26.2 27 Sudeste 30 Sudeste 0 -- -- 79
2020-07-23 12:00:00 26 21 Sudeste 23 Sudeste 0 -- -- 77
2020-07-23 11:00:00 26.7 16 Sudeste 18 Sudeste 0 -- -- 82
2020-07-23 10:00:00 26.5 5 Este 8 Este 0 -- -- 75
2020-07-23 09:00:00 24.9 5 Noroeste 12 Oeste 0 -- -- 77
2020-07-23 08:00:00 23.7 8 Noroeste 12 Oeste 0 -- -- 80
2020-07-23 07:00:00 23.7 5 Oeste 9 Oeste 0 -- -- 82
2020-07-23 06:00:00 23.8 7 Oeste 15 Oeste 0 -- -- 83
2020-07-23 05:00:00 23.9 6 Oeste 9 Oeste 0 -- -- 84
2020-07-23 04:00:00 24 8 Oeste 12 Oeste 0 -- -- 84
2020-07-23 03:00:00 24.6 9 Oeste 10 Oeste 0 -- -- 83
2020-07-23 02:00:00 25.4 5 Sudoeste 9 Sudoeste 0 -- -- 82
2020-07-23 01:00:00 25.6 4 Oeste 6 Sur 0 -- -- 83
2020-07-23 00:00:00 25.7 5 Sur 10 Sur 0 -- -- 83
2020-07-22 23:00:00 25.8 5 Sudeste 9 Sudeste 0 -- -- 83
2020-07-22 22:00:00 26 2 Sudeste 7 Nordeste 0 -- -- 83
2020-07-22 21:00:00 26.8 5 Nordeste 12 Nordeste 0 -- -- 80
2020-07-22 20:00:00 27.6 10 Este 14 Este 0 -- -- 80
2020-07-22 19:00:00 27 12 Este 15 Este 0 -- -- 80
2020-07-22 18:00:00 26.3 12 Este 19 Este 0 -- -- 84
2020-07-22 17:00:00 26.5 16 Este 24 Este 0 -- -- 84
2020-07-22 16:00:00 26.6 21 Este 26 Este 0 -- -- 82
2020-07-22 15:00:00 26.4 19 Este 24 Este 0 -- -- 83
2020-07-22 14:00:00 26.9 15 Este 28 Este 0 -- -- 82
2020-07-22 13:00:00 27.8 24 Este 28 Este 0 -- -- 79
2020-07-22 12:00:00 27 11 Este 20 Este 0 -- -- 76
2020-07-22 11:00:00 28.2 14 Este 18 Este 0 -- -- 71
2020-07-22 10:00:00 28.2 4 Noroeste 16 Oeste 0 -- -- 60
2020-07-22 09:00:00 25.3 12 Oeste 15 Oeste 0 -- -- 64
2020-07-22 08:00:00 24.9 3 Norte 13 Este 0 -- -- 67
2020-07-22 07:00:00 24.3 13 Oeste 16 Oeste 0 -- -- 70
2020-07-22 06:00:00 24.8 11 Noroeste 24 Norte 0 -- -- 70
2020-07-22 05:00:00 25.4 10 Noroeste 22 Noroeste 0 -- -- 69
2020-07-22 04:00:00 24.5 10 Noroeste 17 Oeste 0 -- -- 75
2020-07-22 03:00:00 25.1 13 Noroeste 27 Oeste 0 -- -- 79
2020-07-22 02:00:00 25.2 10 Oeste 18 Noroeste 0 -- -- 83
2020-07-22 01:00:00 25.7 8 Norte 33 Nordeste 0 -- -- 83
2020-07-22 00:00:00 26.1 4 Sudeste 17 Sudeste 0 -- -- 84
2020-07-21 23:00:00 26.1 5 Este 9 Este 0 -- -- 84
2020-07-21 22:00:00 25.8 7 Nordeste 16 Norte 0 -- -- 88
2020-07-21 21:00:00 26.1 8 Nordeste 23 Nordeste 0 -- -- 88
2020-07-21 20:00:00 26.6 19 Nordeste 30 Este 0 -- -- 86
2020-07-21 19:00:00 26.9 9 Nordeste 17 Nordeste 0 -- -- 83
2020-07-21 18:00:00 27.3 12 Este 28 Nordeste 0 -- -- 82
2020-07-21 17:00:00 27.9 11 Nordeste 24 Nordeste 0 -- -- 78
2020-07-21 16:00:00 27.4 19 Nordeste 30 Nordeste 0 -- -- 82
2020-07-21 15:00:00 26.9 26 Nordeste 35 Nordeste 0 -- -- 83
2020-07-21 14:00:00 27.3 16 Nordeste 36 Este 0 -- -- 82
2020-07-21 13:00:00 27.3 28 Nordeste 34 Nordeste 0 -- -- 79
2020-07-21 12:00:00 27.1 24 Nordeste 35 Nordeste 0 -- -- 77
2020-07-21 11:00:00 27.2 22 Nordeste 30 Nordeste 0 -- -- 71
2020-07-21 10:00:00 27.5 18 Nordeste 23 Nordeste 0 -- -- 67
2020-07-21 09:00:00 26.9 7 Norte 15 Noroeste 0 -- -- 56
2020-07-21 08:00:00 24.7 11 Noroeste 19 Noroeste 0 -- -- 64
2020-07-21 07:00:00 23.3 12 Noroeste 24 Noroeste 0 -- -- 71
2020-07-21 06:00:00 23.3 15 Noroeste 22 Noroeste 0 -- -- 70
2020-07-21 05:00:00 23.9 18 Noroeste 28 Noroeste 0 -- -- 67
2020-07-21 04:00:00 24.2 14 Noroeste 22 Noroeste 0 -- -- 69
2020-07-21 03:00:00 24 14 Noroeste 19 Noroeste 0 -- -- 75
2020-07-21 02:00:00 24.1 11 Noroeste 15 Noroeste 0 -- -- 80
2020-07-21 01:00:00 24.8 8 Noroeste 21 Nordeste 0 -- -- 83
2020-07-21 00:00:00 25.8 11 Nordeste 18 Nordeste 0 -- -- 85
2020-07-20 23:00:00 26 9 Nordeste 18 Norte 0 -- -- 83
2020-07-20 22:00:00 26 10 Nordeste 17 Nordeste 0 -- -- 82
2020-07-20 21:00:00 26.6 8 Nordeste 15 Nordeste 0 -- -- 80
2020-07-20 20:00:00 27.6 9 Nordeste 18 Nordeste 0 -- -- 79
2020-07-20 19:00:00 27.7 13 Nordeste 21 Nordeste 0 -- -- 78
2020-07-20 18:00:00 26.6 12 Este 15 Nordeste 0 -- -- 79
2020-07-20 17:00:00 26.4 14 Este 19 Este 0 -- -- 82
2020-07-20 16:00:00 26.1 15 Este 20 Este 0 -- -- 81
2020-07-20 15:00:00 26.3 15 Este 18 Este 0 -- -- 81
2020-07-20 14:00:00 26.1 12 Este 19 Este 0 -- -- 84
2020-07-20 13:00:00 27 16 Este 19 Este 0 -- -- 81
2020-07-20 12:00:00 27.6 12 Nordeste 17 Nordeste 0 -- -- 75
2020-07-20 11:00:00 27.5 10 Nordeste 14 Nordeste 0 -- -- 74
2020-07-20 10:00:00 28.2 5 Nordeste 10 Noroeste 0 -- -- 71
2020-07-20 09:00:00 24.8 3 Noroeste 17 Oeste 0 -- -- 68
2020-07-20 08:00:00 22.6 14 Oeste 18 Oeste 0 -- -- 75
2020-07-20 07:00:00 22.7 12 Oeste 16 Oeste 0 -- -- 83
2020-07-20 06:00:00 22.5 7 Noroeste 12 Oeste 0 -- -- 78
2020-07-20 05:00:00 22.8 9 Noroeste 15 Oeste 0 -- -- 82
2020-07-20 04:00:00 23.4 13 Oeste 18 Oeste 0 -- -- 86
2020-07-20 03:00:00 23.8 15 Sudoeste 20 Sudoeste 0 -- -- 89
2020-07-20 02:00:00 24.4 9 Oeste 15 Sudoeste 0 -- -- 90
2020-07-20 01:00:00 24.5 8 Oeste 13 Nordeste 0 -- -- 88
2020-07-20 00:00:00 24.9 8 Nordeste 16 Nordeste 0 -- -- 89
2020-07-19 23:00:00 24.9 10 Nordeste 19 Nordeste 0 -- -- 90
2020-07-19 22:00:00 25 13 Este 15 Este 0 -- -- 89
2020-07-19 21:00:00 25.2 9 Este 15 Este 0 -- -- 87
2020-07-19 20:00:00 25.5 13 Este 19 Este 0 -- -- 87
2020-07-19 19:00:00 25.6 15 Este 21 Sudeste 0 -- -- 86
2020-07-19 18:00:00 25.6 20 Sudeste 23 Sudeste 0 -- -- 85
2020-07-19 17:00:00 25.1 21 Sudeste 23 Sudeste 0 -- -- 86
2020-07-19 16:00:00 25.5 19 Sudeste 24 Sudeste 0 -- -- 85
2020-07-19 15:00:00 25.4 20 Este 23 Este 0 -- -- 84
2020-07-19 14:00:00 25.6 18 Este 21 Este 0 -- -- 85
2020-07-19 13:00:00 25.8 16 Este 19 Este 0 -- -- 85
2020-07-19 12:00:00 25.3 16 Este 19 Este 0 -- -- 82
2020-07-19 11:00:00 25.6 11 Este 14 Este 0 -- -- 82
2020-07-19 10:00:00 26.1 3 Este 9 Oeste 0 -- -- 78
2020-07-19 09:00:00 24.1 8 Noroeste 12 Oeste 0 -- -- 80
2020-07-19 08:00:00 23.3 8 Oeste 10 Oeste 0 -- -- 80
2020-07-19 07:00:00 23 5 Oeste 10 Oeste 0 -- -- 80
2020-07-19 06:00:00 23.1 6 Oeste 12 Sudoeste 0 -- -- 81
2020-07-19 05:00:00 22.8 7 Oeste 10 Sudoeste 0 -- -- 84
2020-07-19 04:00:00 23 11 Sudoeste 14 Sudoeste 0 -- -- 87
2020-07-19 03:00:00 23.3 6 Oeste 10 Oeste 0 -- -- 87
2020-07-19 02:00:00 23.8 9 Oeste 13 Oeste 0 -- -- 85
2020-07-19 01:00:00 23.8 8 Oeste 12 Oeste 0 -- -- 87
2020-07-19 00:00:00 24.4 5 Noroeste 9 Noroeste 0 -- -- 86
2020-07-18 23:00:00 24.5 3 Nordeste 12 Nordeste 0 -- -- 86
2020-07-18 22:00:00 24.7 8 Nordeste 17 Este 0 -- -- 86
2020-07-18 21:00:00 24.9 13 Este 18 Este 0 -- -- 85
2020-07-18 20:00:00 25.2 15 Este 21 Este 0 -- -- 83
2020-07-18 19:00:00 25.7 16 Este 20 Este 0 -- -- 83
2020-07-18 18:00:00 25.8 18 Este 23 Este 0 -- -- 82
2020-07-18 17:00:00 25.6 20 Este 28 Este 0 -- -- 82
2020-07-18 16:00:00 25.5 24 Este 27 Este 0 -- -- 82
2020-07-18 15:00:00 25.6 19 Este 22 Este 0 -- -- 81
2020-07-18 14:00:00 26.3 18 Este 23 Este 0 -- -- 77
2020-07-18 13:00:00 26.7 17 Este 23 Este 0 -- -- 76
2020-07-18 12:00:00 26.5 17 Este 21 Nordeste 0 -- -- 77
2020-07-18 11:00:00 26.2 14 Nordeste 21 Nordeste 0 -- -- 76
2020-07-18 10:00:00 26.4 8 Nordeste 14 Nordeste 0 -- -- 75
2020-07-18 09:00:00 24.5 9 Noroeste 15 Noroeste 0 -- -- 79
2020-07-18 08:00:00 22.4 10 Noroeste 15 Noroeste 0 -- -- 84
2020-07-18 07:00:00 22.4 10 Noroeste 15 Noroeste 0 -- -- 87
2020-07-18 06:00:00 22.6 10 Noroeste 13 Oeste 0 -- -- 86
2020-07-18 05:00:00 22.7 10 Noroeste 13 Oeste 0 -- -- 85
2020-07-18 04:00:00 23.1 11 Oeste 15 Oeste 0 -- -- 86
2020-07-18 03:00:00 23.5 9 Noroeste 12 Noroeste 0 -- -- 87
2020-07-18 02:00:00 23.7 8 Noroeste 10 Noroeste 0 -- -- 86
2020-07-18 01:00:00 24 6 Noroeste 9 Nordeste 0 -- -- 86
2020-07-18 00:00:00 24.5 4 Nordeste 9 Nordeste 0 -- -- 87
2020-07-17 23:00:00 24.6 5 Nordeste 13 Nordeste 0 -- -- 87
2020-07-17 22:00:00 24.7 10 Nordeste 17 Nordeste 0 -- -- 86
2020-07-17 21:00:00 25.1 14 Este 18 Este 0 -- -- 84
2020-07-17 20:00:00 25.1 15 Este 20 Este 0 -- -- 83
2020-07-17 19:00:00 25.1 17 Este 22 Este 0 -- -- 83
2020-07-17 18:00:00 25.3 18 Este 22 Este 0 -- -- 83
2020-07-17 17:00:00 25.2 17 Este 21 Este 0 -- -- 83
2020-07-17 16:00:00 25.1 17 Este 20 Este 0 -- -- 83
2020-07-17 15:00:00 25.6 16 Este 22 Este 0 -- -- 82
2020-07-17 14:00:00 25.4 18 Este 22 Este 0 -- -- 79
2020-07-17 13:00:00 26.3 19 Nordeste 22 Este 0 -- -- 77
2020-07-17 12:00:00 25.7 15 Este 18 Este 0 -- -- 72
2020-07-17 11:00:00 26.7 9 Este 13 Este 0 -- -- 62
2020-07-17 10:00:00 27 3 Noroeste 14 Norte 0 -- -- 60
2020-07-17 09:00:00 23.9 9 Noroeste 13 Noroeste 0 -- -- 73
2020-07-17 08:00:00 22.3 3 Noroeste 13 Noroeste 0 -- -- 80
2020-07-17 07:00:00 22.2 6 Noroeste 14 Noroeste 0 -- -- 82
2020-07-17 06:00:00 22.6 10 Noroeste 16 Oeste 0 -- -- 81
2020-07-17 05:00:00 22.8 11 Noroeste 18 Noroeste 0 -- -- 81
2020-07-17 04:00:00 22.7 12 Oeste 18 Oeste 0 -- -- 80
2020-07-17 03:00:00 22.9 14 Oeste 18 Oeste 0 -- -- 80
2020-07-17 02:00:00 22.9 9 Noroeste 12 Oeste 0 -- -- 85
2020-07-17 01:00:00 23.8 9 Oeste 15 Norte 0 -- -- 85
2020-07-17 00:00:00 24.5 8 Norte 15 Nordeste 0 -- -- 86
2020-07-16 23:00:00 24.8 8 Nordeste 21 Nordeste 0 -- -- 86
2020-07-16 22:00:00 25.1 12 Nordeste 19 Nordeste 0 -- -- 84
2020-07-16 21:00:00 25.7 13 Nordeste 21 Nordeste 0 -- -- 79
2020-07-16 20:00:00 26.6 12 Nordeste 21 Nordeste 0 -- -- 77
2020-07-16 19:00:00 26.6 16 Nordeste 24 Nordeste 0 -- -- 78
2020-07-16 18:00:00 26.6 14 Nordeste 28 Nordeste 0 -- -- 79
2020-07-16 17:00:00 26.8 20 Este 32 Este 0 -- -- 78
2020-07-16 16:00:00 26.6 27 Este 32 Este 0 -- -- 78
2020-07-16 15:00:00 26.7 23 Este 29 Este 0 -- -- 74
2020-07-16 14:00:00 27 23 Nordeste 29 Este 0 -- -- 76
2020-07-16 13:00:00 26.9 14 Este 22 Nordeste 0 -- -- 71
2020-07-16 12:00:00 27.4 16 Nordeste 24 Nordeste 0 -- -- 64
2020-07-16 11:00:00 27.7 14 Nordeste 19 Nordeste 0 -- -- 60
2020-07-16 10:00:00 26.7 6 Norte 23 Noroeste 0 -- -- 63
2020-07-16 09:00:00 24.3 12 Noroeste 20 Noroeste 0 -- -- 72
2020-07-16 08:00:00 22.7 12 Noroeste 18 Noroeste 0 -- -- 79
2020-07-16 07:00:00 21.9 12 Noroeste 18 Noroeste 0 -- -- 81
2020-07-16 06:00:00 21.9 13 Noroeste 19 Noroeste 0 -- -- 80
2020-07-16 05:00:00 22.2 13 Noroeste 19 Noroeste 0 -- -- 81
2020-07-16 04:00:00 22.8 13 Noroeste 16 Oeste 0 -- -- 78
2020-07-16 03:00:00 23.4 11 Noroeste 15 Noroeste 0 -- -- 79
2020-07-16 02:00:00 23.6 11 Noroeste 14 Oeste 0 -- -- 80
2020-07-16 01:00:00 23.7 10 Oeste 19 Nordeste 0 -- -- 81
2020-07-16 00:00:00 25.1 12 Nordeste 21 Nordeste 0 -- -- 85
2020-07-15 23:00:00 25 11 Nordeste 22 Nordeste 0 -- -- 85
2020-07-15 22:00:00 25.1 13 Nordeste 21 Nordeste 0 -- -- 85
2020-07-15 21:00:00 25.9 14 Nordeste 20 Nordeste 0 -- -- 82
2020-07-15 20:00:00 26.8 13 Nordeste 20 Nordeste 0 -- -- 79
2020-07-15 19:00:00 26.9 14 Nordeste 26 Nordeste 0 -- -- 78
2020-07-15 18:00:00 26.6 21 Nordeste 29 Este 0 -- -- 78
2020-07-15 17:00:00 26.4 27 Este 35 Este 0 -- -- 80
2020-07-15 16:00:00 25.5 27 Este 34 Este 0 -- -- 83
2020-07-15 15:00:00 26.1 33 Este 37 Este 0 -- -- 80
2020-07-15 14:00:00 26.3 30 Este 36 Este 0 -- -- 78
2020-07-15 13:00:00 26.7 22 Este 26 Nordeste 0 -- -- 76
2020-07-15 12:00:00 26.6 18 Nordeste 26 Nordeste 0 -- -- 76
2020-07-15 11:00:00 26.1 19 Nordeste 29 Nordeste 0 -- -- 76
2020-07-15 10:00:00 26.2 14 Nordeste 22 Norte 0 -- -- 75
2020-07-15 09:00:00 24.5 10 Norte 23 Noroeste 0 -- -- 75
2020-07-15 08:00:00 23.4 13 Noroeste 20 Noroeste 0 -- -- 80
2020-07-15 07:00:00 23 10 Noroeste 15 Noroeste 0 -- -- 82
2020-07-15 06:00:00 23.1 10 Noroeste 21 Norte 0 -- -- 82
2020-07-15 05:00:00 23.5 14 Noroeste 20 Noroeste 0 -- -- 82
2020-07-15 04:00:00 23.6 9 Noroeste 14 Noroeste 0 -- -- 84
2020-07-15 03:00:00 24.5 9 Noroeste 14 Norte 0 -- -- 83
2020-07-15 02:00:00 24.9 10 Norte 29 Este 0 -- -- 85
2020-07-15 01:00:00 25.1 21 Nordeste 25 Nordeste 0 -- -- 84
2020-07-15 00:00:00 25.2 10 Nordeste 19 Nordeste 0 -- -- 84
2020-07-14 23:00:00 25.1 9 Norte 12 Norte 0 -- -- 84
2020-07-14 22:00:00 24.8 4 Sudoeste 14 Este 0 -- -- 85
2020-07-14 21:00:00 25.2 11 Este 15 Este 0 -- -- 84
2020-07-14 20:00:00 25.4 6 Norte 20 Nordeste 0 -- -- 83
2020-07-14 19:00:00 25.9 11 Este 15 Nordeste 0 -- -- 81
2020-07-14 18:00:00 26.3 10 Nordeste 16 Norte 0 -- -- 81
2020-07-14 17:00:00 25.9 9 Este 20 Este 0 -- -- 82
2020-07-14 16:00:00 25.8 16 Este 22 Este 0 -- -- 85
2020-07-14 15:00:00 26.3 14 Este 21 Este 0 -- -- 82
2020-07-14 14:00:00 25.6 18 Este 22 Este 0 -- -- 84
2020-07-14 13:00:00 26.6 17 Este 21 Este 0 -- -- 80
2020-07-14 12:00:00 26.1 19 Este 23 Este 0 -- -- 80
2020-07-14 11:00:00 27.2 15 Este 18 Este 0 -- -- 75
2020-07-14 10:00:00 28.4 2 Este 12 Oeste 0 -- -- 66
2020-07-14 09:00:00 25.3 7 Oeste 10 Oeste 0 -- -- 66
2020-07-14 08:00:00 23.3 7 Oeste 12 Oeste 0 -- -- 68
2020-07-14 07:00:00 23.6 11 Oeste 14 Oeste 0 -- -- 67
2020-07-14 06:00:00 23.6 11 Noroeste 16 Oeste 0 -- -- 68
2020-07-14 05:00:00 23.6 10 Noroeste 14 Noroeste 0 -- -- 70
2020-07-14 04:00:00 23.4 12 Noroeste 14 Oeste 0 -- -- 70
2020-07-14 03:00:00 23.6 10 Oeste 13 Oeste 0 -- -- 71
2020-07-14 02:00:00 24.8 8 Oeste 10 Oeste 0 -- -- 66
2020-07-14 01:00:00 25 3 Oeste 6 Oeste 0 -- -- 70
2020-07-14 00:00:00 25.8 0 Calma 4 Oeste 0 -- -- 71